createdAt,value
2023-05-03T00:02:12.348Z,36.16
2023-05-03T00:04:39.528Z,36.35
2023-05-03T00:07:06.930Z,36.06
2023-05-03T00:09:35.740Z,36.16
2023-05-03T00:12:02.757Z,36.26
2023-05-03T00:14:29.699Z,36.37
2023-05-03T00:16:56.544Z,36.18
2023-05-03T00:19:31.350Z,36.27
2023-05-03T00:21:59.598Z,36.40
2023-05-03T00:24:27.489Z,36.34
2023-05-03T00:26:54.299Z,36.45
2023-05-03T00:29:23.174Z,36.49
2023-05-03T00:31:50.021Z,36.59
2023-05-03T00:34:17.142Z,36.53
2023-05-03T00:36:44.988Z,36.56
2023-05-03T00:39:12.298Z,36.72
2023-05-03T00:41:39.274Z,36.76
2023-05-03T00:44:07.241Z,36.76
2023-05-03T00:46:34.767Z,36.86
2023-05-03T00:49:01.701Z,36.92
2023-05-03T00:51:28.566Z,37.07
2023-05-03T00:53:55.872Z,37.13
2023-05-03T00:56:23.842Z,37.18
2023-05-03T00:58:51.854Z,37.32
2023-05-03T01:01:19.061Z,37.44
2023-05-03T01:03:46.605Z,37.61
2023-05-03T01:06:37.961Z,37.67
2023-05-03T01:09:10.414Z,37.66
2023-05-03T01:11:54.800Z,37.82
2023-05-03T01:14:50.404Z,37.93
2023-05-03T01:17:18.429Z,38.09
2023-05-03T01:19:56.479Z,38.19
2023-05-03T01:22:27.190Z,38.26
2023-05-03T01:25:06.277Z,38.34
2023-05-03T01:27:33.305Z,38.43
2023-05-03T01:30:00.319Z,38.53
2023-05-03T01:32:51.456Z,38.61
2023-05-03T01:35:21.117Z,38.59
2023-05-03T01:37:48.358Z,38.65
2023-05-03T01:40:16.984Z,38.84
2023-05-03T01:42:43.866Z,38.96
2023-05-03T01:45:11.142Z,39.05
2023-05-03T01:47:38.045Z,39.14
2023-05-03T01:50:05.320Z,39.22
2023-05-03T01:52:32.535Z,39.18
2023-05-03T01:55:00.311Z,39.21
2023-05-03T01:57:27.167Z,39.26
2023-05-03T01:59:54.026Z,39.45
2023-05-03T02:02:20.892Z,39.42
2023-05-03T02:04:47.801Z,39.49
2023-05-03T02:07:14.690Z,39.60
2023-05-03T02:09:41.772Z,39.67
2023-05-03T02:12:10.018Z,39.75
2023-05-03T02:14:37.006Z,39.89
2023-05-03T02:17:03.828Z,40.01
2023-05-03T02:19:30.753Z,40.06
2023-05-03T02:21:57.735Z,40.17
2023-05-03T02:24:24.605Z,40.36
2023-05-03T02:26:51.438Z,40.40
2023-05-03T02:29:18.580Z,40.46
2023-05-03T02:31:45.802Z,40.52
2023-05-03T02:34:12.703Z,40.58
2023-05-03T02:36:39.577Z,40.71
2023-05-03T02:39:06.949Z,40.76
2023-05-03T02:41:33.870Z,40.84
2023-05-03T02:44:01.023Z,40.99
2023-05-03T02:46:28.032Z,41.11
2023-05-03T02:48:54.932Z,41.11
2023-05-03T02:51:21.768Z,41.23
2023-05-03T02:53:49.070Z,41.29
2023-05-03T02:56:15.887Z,41.27
2023-05-03T02:58:42.756Z,41.49
2023-05-03T03:01:11.301Z,41.44
2023-05-03T03:03:38.234Z,41.50
2023-05-03T03:06:06.874Z,41.46
2023-05-03T03:08:34.505Z,41.64
2023-05-03T03:11:01.760Z,41.64
2023-05-03T03:13:28.638Z,41.76
2023-05-03T03:15:55.584Z,41.89
2023-05-03T03:18:22.406Z,41.95
2023-05-03T03:20:49.317Z,41.98
2023-05-03T03:23:16.299Z,41.93
2023-05-03T03:25:43.231Z,41.98
2023-05-03T03:28:10.125Z,41.98
2023-05-03T03:30:39.651Z,42.06
2023-05-03T03:33:25.944Z,42.08
2023-05-03T03:35:54.944Z,42.08
2023-05-03T03:38:22.995Z,42.31
2023-05-03T03:40:54.482Z,42.30
2023-05-03T03:43:21.430Z,42.30
2023-05-03T03:45:48.438Z,42.38
2023-05-03T03:48:15.678Z,42.33
2023-05-03T03:50:42.819Z,42.45
2023-05-03T03:53:11.702Z,42.26
2023-05-03T03:55:39.620Z,42.25
2023-05-03T03:58:07.078Z,42.08
2023-05-03T04:00:35.829Z,41.99
2023-05-03T04:03:07.771Z,41.77
2023-05-03T04:05:35.200Z,41.69
2023-05-03T04:08:02.392Z,41.55
2023-05-03T04:10:30.554Z,41.50
2023-05-03T04:12:57.423Z,41.19
2023-05-03T04:15:24.416Z,40.85
2023-05-03T04:17:51.624Z,40.50
2023-05-03T04:20:20.139Z,40.01
2023-05-03T04:22:48.206Z,39.75
2023-05-03T04:25:17.285Z,38.97
2023-05-03T04:27:48.932Z,38.63
2023-05-03T04:30:17.640Z,38.32
2023-05-03T04:32:47.737Z,38.31
2023-05-03T04:35:14.807Z,38.31
2023-05-03T04:37:44.614Z,38.49
2023-05-03T04:40:12.932Z,38.05
2023-05-03T04:42:44.554Z,37.40
2023-05-03T04:45:11.783Z,37.09
2023-05-03T04:47:38.687Z,36.46
2023-05-03T04:50:10.694Z,35.89
2023-05-03T04:52:38.620Z,35.30
2023-05-03T04:55:06.542Z,34.88
2023-05-03T04:57:34.024Z,35.00
2023-05-03T05:00:01.765Z,34.61
2023-05-03T05:02:29.180Z,34.18
2023-05-03T05:04:56.069Z,34.03
2023-05-03T05:07:22.893Z,34.04
2023-05-03T05:09:49.764Z,33.86
2023-05-03T05:12:17.878Z,34.07
2023-05-03T05:14:45.758Z,34.32
2023-05-03T05:17:13.442Z,34.74
2023-05-03T05:19:43.120Z,34.87
2023-05-03T05:22:11.173Z,34.97
2023-05-03T05:24:51.653Z,34.88
2023-05-03T05:27:19.088Z,34.82
2023-05-03T05:29:46.108Z,34.38
2023-05-03T05:32:14.996Z,33.97
2023-05-03T05:34:45.115Z,33.90
2023-05-03T05:37:15.260Z,33.38
2023-05-03T05:39:42.717Z,33.11
2023-05-03T05:42:10.859Z,32.94
2023-05-03T05:44:37.796Z,32.69
2023-05-03T05:47:07.320Z,32.35
2023-05-03T05:49:36.240Z,31.96
2023-05-03T05:52:05.276Z,31.56
2023-05-03T05:54:32.515Z,31.51
2023-05-03T05:56:59.726Z,30.95
2023-05-03T05:59:29.749Z,30.91
2023-05-03T06:01:57.378Z,31.26
2023-05-03T06:04:24.409Z,30.95
2023-05-03T06:06:51.978Z,30.50
2023-05-03T06:11:51.395Z,30.30
2023-05-03T06:14:20.809Z,29.84
2023-05-03T06:16:48.167Z,29.46
2023-05-03T06:19:15.392Z,29.35
2023-05-03T06:21:42.247Z,28.92
2023-05-03T06:24:10.025Z,28.25
2023-05-03T06:26:37.030Z,28.38
2023-05-03T06:29:04.210Z,27.92
2023-05-03T06:31:31.238Z,27.42
2023-05-03T06:33:58.624Z,27.00
2023-05-03T06:36:27.848Z,26.49
2023-05-03T06:38:55.095Z,26.13
2023-05-03T06:41:22.038Z,26.18
2023-05-03T06:43:48.949Z,26.31
2023-05-03T06:46:18.277Z,25.25
2023-05-03T06:48:47.736Z,24.19
2023-05-03T06:51:15.894Z,24.31
2023-05-03T06:53:42.810Z,24.35
2023-05-03T06:56:09.936Z,24.52
2023-05-03T06:58:37.061Z,24.09
2023-05-03T07:01:03.910Z,23.80
2023-05-03T07:03:32.119Z,23.03
2023-05-03T07:05:59.675Z,22.87
2023-05-03T07:08:26.559Z,23.11
2023-05-03T07:10:53.441Z,23.10
2023-05-03T07:13:21.526Z,23.26
2023-05-03T07:15:48.475Z,23.40
2023-05-03T07:18:15.382Z,23.91
2023-05-03T07:20:42.347Z,24.03
2023-05-03T07:23:09.194Z,23.83
2023-05-03T07:25:36.006Z,23.73
2023-05-03T07:28:03.461Z,23.73
2023-05-03T07:30:30.385Z,23.93
2023-05-03T07:32:57.496Z,24.68
2023-05-03T07:35:24.637Z,24.95
2023-05-03T07:37:51.584Z,25.22
2023-05-03T07:40:20.678Z,25.10
2023-05-03T07:43:56.673Z,25.86
2023-05-03T07:46:23.682Z,25.64
2023-05-03T07:48:50.785Z,25.60
2023-05-03T07:51:17.652Z,25.79
2023-05-03T07:53:44.616Z,25.62
2023-05-03T07:56:11.561Z,25.60
2023-05-03T07:58:40.647Z,25.70
2023-05-03T08:01:08.043Z,25.66
2023-05-03T08:03:36.101Z,25.59
2023-05-03T08:06:04.630Z,25.47
2023-05-03T08:08:32.318Z,25.77
2023-05-03T08:10:59.204Z,25.56
2023-05-03T08:13:26.241Z,25.43
2023-05-03T08:15:53.225Z,25.54
2023-05-03T08:18:22.230Z,25.71
2023-05-03T08:20:50.067Z,25.70
2023-05-03T08:23:19.319Z,25.76
2023-05-03T08:25:50.305Z,26.01
2023-05-03T08:28:17.142Z,25.85
2023-05-03T08:30:45.185Z,25.86
2023-05-03T08:33:12.047Z,26.15
2023-05-03T08:35:39.032Z,26.13
2023-05-03T08:38:06.531Z,25.97
2023-05-03T08:40:37.260Z,26.02
2023-05-03T08:43:08.736Z,25.87
2023-05-03T08:45:35.738Z,25.63
2023-05-03T08:48:04.703Z,25.71
2023-05-03T08:50:32.060Z,25.64
2023-05-03T08:52:59.667Z,25.56
2023-05-03T08:55:27.610Z,25.74
2023-05-03T08:57:54.580Z,25.85
2023-05-03T09:00:28.291Z,25.70
2023-05-03T09:02:55.242Z,25.92
2023-05-03T09:05:22.115Z,25.65
2023-05-03T09:08:06.558Z,25.48
2023-05-03T09:10:34.430Z,25.47
2023-05-03T09:13:02.543Z,25.20
2023-05-03T09:15:30.738Z,25.62
2023-05-03T09:18:17.627Z,25.65
2023-05-03T09:20:54.367Z,25.63
2023-05-03T09:23:27.647Z,25.57
2023-05-03T09:25:54.545Z,25.57
2023-05-03T09:28:21.439Z,25.48
2023-05-03T09:30:49.071Z,25.25
2023-05-03T09:33:23.125Z,25.51
2023-05-03T09:36:00.606Z,25.22
2023-05-03T09:38:28.662Z,25.24
2023-05-03T09:40:55.991Z,25.52
2023-05-03T09:43:22.932Z,25.39
2023-05-03T09:45:49.930Z,25.24
2023-05-03T09:48:16.967Z,25.13
2023-05-03T09:50:43.994Z,25.14
2023-05-03T09:53:10.894Z,25.02
2023-05-03T09:55:39.030Z,25.05
2023-05-03T09:58:07.793Z,24.96
2023-05-03T10:00:38.727Z,25.12
2023-05-03T10:03:11.568Z,25.09
2023-05-03T10:05:49.256Z,25.08
2023-05-03T10:08:56.841Z,25.20
2023-05-03T10:11:27.148Z,24.78
2023-05-03T10:13:55.862Z,24.81
2023-05-03T10:16:39.407Z,24.88
2023-05-03T10:19:16.249Z,24.68
2023-05-03T10:21:57.646Z,24.36
2023-05-03T10:24:25.383Z,24.18
2023-05-03T10:26:52.393Z,24.19
2023-05-03T10:29:34.762Z,23.83
2023-05-03T10:32:04.749Z,23.62
2023-05-03T10:34:35.206Z,23.32
2023-05-03T10:37:09.722Z,23.59
2023-05-03T10:39:37.044Z,23.65
2023-05-03T10:42:06.239Z,23.27
2023-05-03T10:44:40.042Z,23.33
2023-05-03T10:47:14.754Z,23.45
2023-05-03T10:49:41.612Z,23.35
2023-05-03T10:52:39.833Z,23.60
2023-05-03T10:55:15.064Z,23.49
2023-05-03T10:57:46.911Z,23.31
2023-05-03T11:00:19.218Z,23.34
2023-05-03T11:03:09.343Z,23.56
2023-05-03T11:05:36.415Z,23.66
2023-05-03T11:08:18.072Z,23.89
2023-05-03T11:10:45.871Z,23.72
2023-05-03T11:13:12.875Z,23.75
2023-05-03T11:15:39.967Z,23.53
2023-05-03T11:18:07.702Z,23.53
2023-05-03T11:20:36.422Z,23.63
2023-05-03T11:23:06.105Z,23.43
2023-05-03T11:25:34.105Z,23.29
2023-05-03T11:28:02.226Z,23.69
2023-05-03T11:30:29.643Z,23.78
2023-05-03T11:32:56.775Z,23.70
2023-05-03T11:35:25.990Z,24.02
2023-05-03T11:37:54.128Z,23.83
2023-05-03T11:40:21.465Z,23.56
2023-05-03T11:42:56.311Z,23.60
2023-05-03T11:45:27.652Z,23.65
2023-05-03T11:47:55.679Z,23.43
2023-05-03T11:50:48.111Z,23.06
2023-05-03T11:53:15.865Z,22.86
2023-05-03T11:55:43.782Z,22.85
2023-05-03T11:58:14.710Z,22.88
2023-05-03T12:00:46.173Z,22.96
2023-05-03T12:03:21.913Z,23.22
2023-05-03T12:05:51.097Z,23.85
2023-05-03T12:08:20.805Z,23.97
2023-05-03T12:10:53.380Z,23.82
2023-05-03T12:13:30.021Z,23.74
2023-05-03T12:18:50.365Z,23.62
2023-05-03T12:23:55.663Z,23.79
2023-05-03T12:26:25.588Z,23.58
2023-05-03T12:28:56.017Z,23.72
2023-05-03T12:31:23.869Z,23.90
2023-05-03T12:34:09.161Z,23.83
2023-05-03T12:36:38.442Z,23.32
2023-05-03T12:39:10.241Z,23.14
2023-05-03T12:44:10.786Z,23.05
2023-05-03T12:46:39.177Z,23.41
2023-05-03T12:49:08.079Z,23.68
2023-05-03T12:51:36.561Z,23.49
2023-05-03T12:54:10.236Z,23.43
2023-05-03T12:56:40.404Z,22.93
2023-05-03T12:59:39.306Z,23.17
2023-05-03T13:06:59.199Z,23.30
2023-05-03T13:09:37.808Z,23.36
2023-05-03T13:12:05.633Z,23.23
2023-05-03T13:14:33.693Z,23.30
2023-05-03T13:17:01.576Z,23.28
2023-05-03T13:19:28.651Z,23.43
2023-05-03T13:21:55.591Z,23.01
2023-05-03T13:24:22.401Z,22.93
2023-05-03T13:26:49.343Z,22.81
2023-05-03T13:29:16.327Z,22.87
2023-05-03T13:31:43.229Z,23.07
2023-05-03T13:34:10.110Z,23.96
2023-05-03T13:36:37.028Z,23.76
2023-05-03T13:39:03.878Z,23.94
2023-05-03T13:41:30.691Z,23.74
2023-05-03T13:43:57.519Z,23.67
2023-05-03T13:46:24.456Z,23.89
2023-05-03T13:48:52.746Z,24.13
2023-05-03T13:51:20.056Z,24.31
2023-05-03T13:53:46.905Z,23.93
2023-05-03T13:56:13.721Z,23.98
2023-05-03T13:58:41.177Z,24.30
2023-05-03T14:01:08.082Z,24.63
2023-05-03T14:03:35.041Z,24.83
2023-05-03T14:06:02.929Z,25.03
2023-05-03T14:08:31.056Z,25.20
2023-05-03T14:10:57.999Z,25.40
2023-05-03T14:13:25.065Z,25.86
2023-05-03T14:15:52.128Z,26.04
2023-05-03T14:18:19.206Z,26.00
2023-05-03T14:20:47.182Z,26.10
2023-05-03T14:23:13.976Z,26.22
2023-05-03T14:25:41.299Z,26.02
2023-05-03T14:28:08.194Z,25.98
2023-05-03T14:30:35.124Z,26.22
2023-05-03T14:33:02.106Z,26.38
2023-05-03T14:35:29.014Z,26.41
2023-05-03T14:37:56.057Z,26.63
2023-05-03T14:40:22.967Z,26.77
2023-05-03T14:42:50.220Z,26.94
2023-05-03T14:45:17.320Z,27.01
2023-05-03T14:47:44.359Z,27.20
2023-05-03T14:50:11.404Z,27.30
2023-05-03T14:52:38.629Z,27.28
2023-05-03T14:55:06.891Z,27.14
2023-05-03T14:57:34.033Z,27.28
2023-05-03T15:00:02.657Z,27.28
2023-05-03T15:02:29.980Z,27.34
2023-05-03T15:04:57.307Z,27.38
2023-05-03T15:07:24.151Z,27.52
2023-05-03T15:09:51.552Z,27.47
2023-05-03T15:12:18.367Z,27.58
2023-05-03T15:14:45.354Z,27.48
2023-05-03T15:17:12.973Z,27.54
2023-05-03T15:19:39.991Z,27.68
2023-05-03T15:22:06.893Z,27.71
2023-05-03T15:24:33.734Z,27.84
2023-05-03T15:27:02.911Z,27.86
2023-05-03T15:29:29.755Z,27.66
2023-05-03T15:31:57.665Z,27.83
2023-05-03T15:34:24.587Z,27.94
2023-05-03T15:36:51.472Z,28.10
2023-05-03T15:39:18.364Z,27.93
2023-05-03T15:41:48.001Z,28.12
2023-05-03T15:44:16.321Z,27.86
2023-05-03T15:46:44.368Z,28.22
2023-05-03T15:49:12.036Z,28.26
2023-05-03T15:51:39.417Z,28.17
2023-05-03T15:54:06.319Z,28.25
2023-05-03T15:56:33.160Z,28.29
2023-05-03T15:58:59.937Z,28.62
2023-05-03T16:01:26.939Z,28.82
2023-05-03T16:03:53.930Z,28.76
2023-05-03T16:06:20.799Z,28.97
2023-05-03T16:08:47.713Z,28.97
2023-05-03T16:11:15.058Z,29.29
2023-05-03T16:13:41.958Z,29.17
2023-05-03T16:16:08.982Z,29.40
2023-05-03T16:18:35.881Z,29.39
2023-05-03T16:21:03.101Z,29.74
2023-05-03T16:23:30.091Z,29.74
2023-05-03T16:25:57.168Z,29.84
2023-05-03T16:28:24.044Z,29.81
2023-05-03T16:30:51.921Z,29.95
2023-05-03T16:33:19.558Z,30.16
2023-05-03T16:35:46.541Z,30.36
2023-05-03T16:38:13.422Z,30.85
2023-05-03T16:40:40.873Z,31.01
2023-05-03T16:43:07.907Z,31.12
2023-05-03T16:45:34.756Z,31.42
2023-05-03T16:48:04.776Z,31.45
2023-05-03T16:50:33.145Z,31.55
2023-05-03T16:53:00.024Z,31.66
2023-05-03T16:55:26.886Z,31.80
2023-05-03T16:57:53.772Z,31.79
2023-05-03T17:00:22.080Z,31.96
2023-05-03T17:02:49.233Z,32.15
2023-05-03T17:05:16.293Z,32.31
2023-05-03T17:07:43.217Z,32.28
2023-05-03T17:10:10.544Z,32.53
2023-05-03T17:12:37.645Z,32.84
2023-05-03T17:15:04.954Z,32.54
2023-05-03T17:17:32.506Z,32.75
2023-05-03T17:19:59.676Z,32.85
2023-05-03T17:22:28.227Z,32.64
2023-05-03T17:24:57.878Z,32.93
2023-05-03T17:27:24.852Z,33.13
2023-05-03T17:29:51.789Z,32.90
2023-05-03T17:32:18.644Z,33.25
2023-05-03T17:34:45.512Z,33.25
2023-05-03T17:37:12.336Z,33.22
2023-05-03T17:39:39.519Z,34.71
2023-05-03T17:42:06.527Z,36.96
2023-05-03T17:44:33.395Z,38.26
2023-05-03T17:47:00.860Z,39.42
2023-05-03T17:49:27.633Z,40.92
2023-05-03T17:51:54.510Z,42.72
2023-05-03T17:54:21.365Z,43.99
2023-05-03T17:56:48.171Z,45.15
2023-05-03T17:59:15.082Z,45.85
2023-05-03T18:01:42.189Z,47.08
2023-05-03T18:04:09.718Z,47.84
2023-05-03T18:06:36.685Z,48.47
2023-05-03T18:09:04.409Z,49.25
2023-05-03T18:11:31.236Z,49.73
2023-05-03T18:13:58.105Z,50.14
2023-05-03T18:16:24.996Z,50.82
2023-05-03T18:18:53.202Z,51.13
2023-05-03T18:21:22.110Z,51.32
2023-05-03T18:23:49.055Z,51.91
2023-05-03T18:26:17.327Z,52.09
2023-05-03T18:28:44.200Z,52.86
2023-05-03T18:31:11.212Z,51.91
2023-05-03T18:33:40.252Z,52.62
2023-05-03T18:36:11.655Z,52.96
2023-05-03T18:38:39.036Z,53.22
2023-05-03T18:41:14.650Z,52.88
2023-05-03T18:43:46.070Z,52.89
2023-05-03T18:46:19.465Z,53.24
2023-05-03T18:48:47.903Z,53.67
2023-05-03T18:51:16.790Z,53.34
2023-05-03T18:53:43.794Z,53.65
2023-05-03T18:56:10.887Z,53.82
2023-05-03T18:58:37.857Z,53.86
2023-05-03T19:01:05.957Z,53.87
2023-05-03T19:03:33.385Z,54.36
2023-05-03T19:06:04.145Z,54.34
2023-05-03T19:08:31.695Z,54.26
2023-05-03T19:11:09.538Z,54.44
2023-05-03T19:13:36.513Z,54.99
2023-05-03T19:16:03.633Z,54.75
2023-05-03T19:18:31.099Z,54.92
2023-05-03T19:20:58.047Z,54.73
2023-05-03T19:23:24.933Z,54.27
2023-05-03T19:25:52.012Z,54.50
2023-05-03T19:28:18.905Z,54.76
2023-05-03T19:30:46.212Z,53.98
2023-05-03T19:33:14.778Z,54.21
2023-05-03T19:35:41.680Z,54.21
2023-05-03T19:38:08.531Z,53.68
2023-05-03T19:40:35.380Z,53.74
2023-05-03T19:43:02.380Z,53.63
2023-05-03T19:45:29.270Z,53.66
2023-05-03T19:47:56.276Z,52.93
2023-05-03T19:50:23.160Z,52.83
2023-05-03T19:52:53.367Z,53.40
2023-05-03T19:55:20.557Z,52.97
2023-05-03T19:57:47.439Z,52.40
2023-05-03T20:01:40.911Z,54.39
2023-05-03T20:04:08.116Z,53.75
2023-05-03T20:06:35.139Z,53.27
2023-05-03T20:09:02.063Z,53.15
2023-05-03T20:11:28.902Z,53.55
2023-05-03T20:13:55.948Z,54.07
2023-05-03T20:16:27.188Z,53.56
2023-05-03T20:18:54.137Z,53.57
2023-05-03T20:21:20.997Z,54.12
2023-05-03T20:23:49.387Z,53.66
2023-05-03T20:26:16.385Z,53.57
2023-05-03T20:28:43.248Z,54.17
2023-05-03T20:31:11.138Z,54.04
2023-05-03T20:33:38.044Z,53.80
2023-05-03T20:36:05.320Z,53.82
2023-05-03T20:38:33.386Z,54.35
2023-05-03T20:41:00.331Z,54.44
2023-05-03T20:43:27.307Z,54.25
2023-05-03T20:45:55.267Z,54.63
2023-05-03T20:48:22.613Z,54.71
2023-05-03T20:50:50.194Z,54.51
2023-05-03T20:53:17.736Z,54.81
2023-05-03T20:55:44.597Z,55.50
2023-05-03T20:58:12.557Z,55.47
2023-05-03T21:00:40.443Z,55.65
2023-05-03T21:03:07.345Z,56.01
2023-05-03T21:05:34.235Z,56.28
2023-05-03T21:08:01.069Z,56.19
2023-05-03T21:10:28.919Z,56.82
2023-05-03T21:12:55.878Z,57.16
2023-05-03T21:15:22.759Z,57.24
2023-05-03T21:17:49.744Z,57.96
2023-05-03T21:20:16.762Z,57.99
2023-05-03T21:22:44.891Z,57.42
2023-05-03T21:25:11.776Z,57.65
2023-05-03T21:27:38.619Z,57.91
2023-05-03T21:30:07.226Z,58.35
2023-05-03T21:32:34.937Z,58.61
2023-05-03T21:35:02.080Z,58.37
2023-05-03T21:37:29.941Z,58.31
2023-05-03T21:40:01.942Z,58.27
2023-05-03T21:42:29.684Z,59.27
2023-05-03T21:44:56.554Z,59.25
2023-05-03T21:47:23.402Z,59.14
2023-05-03T21:49:51.588Z,59.11
2023-05-03T21:52:18.519Z,59.03
2023-05-03T21:54:46.385Z,59.30
2023-05-03T21:57:14.208Z,59.23
2023-05-03T21:59:41.134Z,59.51
2023-05-03T22:02:08.725Z,60.03
2023-05-03T22:04:36.816Z,59.66
2023-05-03T22:07:04.066Z,59.39
2023-05-03T22:09:30.966Z,59.64
2023-05-03T22:11:59.374Z,59.19
2023-05-03T22:14:26.450Z,59.57
2023-05-03T22:16:53.635Z,59.55
2023-05-03T22:19:20.440Z,59.94
2023-05-03T22:21:49.345Z,59.84
2023-05-03T22:24:16.362Z,59.55
2023-05-03T22:26:43.232Z,60.00
2023-05-03T22:29:10.482Z,59.92
2023-05-03T22:31:37.312Z,60.27
2023-05-03T22:34:04.176Z,60.22
2023-05-03T22:36:31.032Z,60.58
2023-05-03T22:39:01.023Z,60.77
2023-05-03T22:41:28.952Z,61.02
2023-05-03T22:43:55.763Z,60.96
2023-05-03T22:46:22.884Z,61.33
2023-05-03T22:48:50.333Z,61.35
2023-05-03T22:51:17.201Z,61.31
2023-05-03T22:53:44.028Z,61.43
2023-05-03T22:56:10.912Z,61.75
2023-05-03T22:58:37.749Z,61.62
2023-05-03T23:01:09.657Z,61.75
2023-05-03T23:03:36.958Z,61.42
2023-05-03T23:06:04.234Z,61.47
2023-05-03T23:08:31.561Z,61.64
2023-05-03T23:10:59.509Z,61.85
2023-05-03T23:13:27.410Z,61.98
2023-05-03T23:15:55.033Z,62.20
2023-05-03T23:18:22.013Z,62.02
2023-05-03T23:20:49.357Z,61.94
2023-05-03T23:23:16.307Z,61.87
2023-05-03T23:25:43.232Z,61.89
2023-05-03T23:28:10.130Z,62.15
2023-05-03T23:30:43.464Z,62.52
2023-05-03T23:33:11.080Z,62.09
2023-05-03T23:35:38.498Z,62.06
2023-05-03T23:38:05.364Z,62.34
2023-05-03T23:40:32.315Z,62.40
2023-05-03T23:42:59.182Z,62.06
2023-05-03T23:45:27.082Z,62.04
2023-05-03T23:47:54.195Z,62.30
2023-05-03T23:50:21.232Z,62.44
2023-05-03T23:52:48.125Z,62.56
2023-05-03T23:55:14.953Z,62.46
2023-05-03T23:57:42.892Z,62.50
